createdAt,value
2019-04-14T00:01:22.247Z,50.52
2019-04-14T00:04:00.816Z,41.77
2019-04-14T00:06:31.123Z,45.85
2019-04-14T00:09:01.016Z,27.65
2019-04-14T00:11:30.192Z,36.38
2019-04-14T00:14:00.915Z,27.20
2019-04-14T00:16:33.458Z,30.30
2019-04-14T00:19:02.565Z,32.88
2019-04-14T00:21:32.486Z,36.98
2019-04-14T00:24:01.402Z,30.12
2019-04-14T00:26:31.738Z,39.05
2019-04-14T00:29:00.803Z,26.17
2019-04-14T00:31:30.744Z,48.92
2019-04-14T00:34:02.957Z,35.17
2019-04-14T00:36:50.309Z,22.55
2019-04-14T00:39:31.590Z,30.75
2019-04-14T00:42:14.812Z,29.72
2019-04-14T00:45:06.915Z,30.27
2019-04-14T00:47:51.707Z,41.13
2019-04-14T00:50:14.432Z,46.60
2019-04-14T00:52:43.769Z,38.10
2019-04-14T00:55:13.912Z,21.80
2019-04-14T00:57:44.079Z,39.35
2019-04-14T01:00:16.938Z,42.75
2019-04-14T01:02:45.031Z,38.30
2019-04-14T01:05:15.911Z,34.45
2019-04-14T01:07:45.536Z,40.10
2019-04-14T01:10:15.028Z,53.42
2019-04-14T01:12:45.223Z,39.83
2019-04-14T01:15:15.717Z,49.75
2019-04-14T01:17:45.991Z,33.98
2019-04-14T01:20:15.220Z,54.05
2019-04-14T01:22:55.329Z,42.08
2019-04-14T01:25:24.255Z,40.35
2019-04-14T01:27:53.811Z,46.92
2019-04-14T01:30:22.715Z,31.27
2019-04-14T01:32:52.956Z,36.15
2019-04-14T01:35:22.754Z,36.30
2019-04-14T01:37:52.823Z,35.38
2019-04-14T01:40:22.829Z,42.73
2019-04-14T01:42:52.739Z,40.80
2019-04-14T01:45:23.123Z,38.10
2019-04-14T01:47:53.331Z,31.27
2019-04-14T01:50:29.816Z,38.63
2019-04-14T01:53:05.443Z,39.50
2019-04-14T01:56:03.915Z,41.25
2019-04-14T01:58:38.771Z,43.48
2019-04-14T02:01:26.650Z,52.15
2019-04-14T02:03:56.311Z,51.28
2019-04-14T02:06:26.559Z,41.45
2019-04-14T02:08:56.846Z,41.10
2019-04-14T02:11:27.034Z,41.83
2019-04-14T02:13:57.218Z,43.33
2019-04-14T02:16:34.773Z,36.93
2019-04-14T02:18:58.498Z,51.98
2019-04-14T02:21:27.996Z,38.92
2019-04-14T02:23:58.315Z,47.50
2019-04-14T02:26:28.579Z,40.45
2019-04-14T02:28:59.137Z,42.00
2019-04-14T02:31:57.042Z,29.77
2019-04-14T02:34:34.585Z,45.65
2019-04-14T02:37:00.273Z,29.18
2019-04-14T02:39:36.424Z,30.85
2019-04-14T02:42:07.070Z,46.92
2019-04-14T02:44:32.495Z,49.93
2019-04-14T02:54:53.751Z,43.65
2019-04-14T02:57:01.886Z,33.53
2019-04-14T02:59:41.562Z,48.68
2019-04-14T03:04:33.934Z,37.23
2019-04-14T03:07:05.449Z,38.85
2019-04-14T03:09:42.319Z,49.05
2019-04-14T03:12:24.555Z,42.43
2019-04-14T03:14:40.556Z,39.23
2019-04-14T03:17:21.369Z,34.92
2019-04-14T03:20:14.034Z,44.30
2019-04-14T03:25:37.484Z,39.98
2019-04-14T03:28:31.863Z,32.83
2019-04-14T03:31:39.187Z,38.65
2019-04-14T03:41:24.069Z,35.28
2019-04-14T03:43:46.296Z,36.00
2019-04-14T03:46:27.525Z,37.23
2019-04-14T03:51:26.359Z,29.57
2019-04-14T03:54:03.742Z,36.95
2019-04-14T03:56:36.255Z,32.85
2019-04-14T03:59:06.287Z,43.55
2019-04-14T04:01:36.656Z,36.88
2019-04-14T04:04:05.955Z,37.63
2019-04-14T04:06:35.653Z,38.53
2019-04-14T04:09:06.327Z,38.35
2019-04-14T04:11:36.546Z,42.00
2019-04-14T04:14:07.333Z,43.48
2019-04-14T04:16:44.412Z,30.37
2019-04-14T04:19:23.023Z,42.93
2019-04-14T04:22:10.954Z,39.53
2019-04-14T04:24:47.581Z,40.23
2019-04-14T04:27:30.859Z,29.82
2019-04-14T04:30:10.209Z,40.20
2019-04-14T04:32:53.695Z,32.93
2019-04-14T04:35:32.533Z,38.70
2019-04-14T04:38:11.817Z,24.80
2019-04-14T04:40:41.847Z,28.67
2019-04-14T04:43:12.463Z,42.38
2019-04-14T04:45:41.659Z,26.97
2019-04-14T04:48:10.872Z,27.65
2019-04-14T04:50:41.012Z,27.87
2019-04-14T04:53:10.047Z,38.92
2019-04-14T04:55:39.491Z,30.20
2019-04-14T04:58:09.971Z,36.38
2019-04-14T05:00:39.523Z,36.35
2019-04-14T05:03:09.965Z,29.65
2019-04-14T05:06:13.328Z,24.98
2019-04-14T05:08:50.142Z,29.05
2019-04-14T05:11:41.020Z,34.25
2019-04-14T05:14:17.845Z,22.22
2019-04-14T05:16:48.480Z,26.25
2019-04-14T05:19:25.785Z,30.12
2019-04-14T05:21:49.520Z,27.65
2019-04-14T05:24:19.928Z,28.62
2019-04-14T05:26:49.032Z,24.02
2019-04-14T05:29:18.898Z,36.48
2019-04-14T05:31:48.969Z,33.18
2019-04-14T05:34:18.050Z,23.87
2019-04-14T05:36:47.834Z,29.85
2019-04-14T05:39:17.762Z,35.90
2019-04-14T05:41:57.068Z,22.67
2019-04-14T05:44:18.633Z,39.50
2019-04-14T05:46:47.605Z,26.25
2019-04-14T05:49:29.560Z,25.57
2019-04-14T05:51:48.001Z,27.85
2019-04-14T05:54:17.043Z,20.70
2019-04-14T05:56:47.059Z,32.00
2019-04-14T05:59:16.182Z,23.80
2019-04-14T06:01:45.354Z,25.70
2019-04-14T06:04:15.733Z,26.60
2019-04-14T06:06:44.609Z,33.33
2019-04-14T06:09:13.814Z,21.90
2019-04-14T06:11:42.771Z,22.55
2019-04-14T06:14:11.933Z,24.43
2019-04-14T06:16:41.016Z,49.98
2019-04-14T06:19:09.947Z,25.85
2019-04-14T06:21:38.877Z,33.20
2019-04-14T06:24:08.237Z,22.25
2019-04-14T06:26:37.104Z,34.43
2019-04-14T06:29:06.099Z,23.70
2019-04-14T06:32:00.343Z,23.65
2019-04-14T06:34:51.096Z,21.05
2019-04-14T06:37:39.441Z,24.65
2019-04-14T06:40:08.949Z,24.15
2019-04-14T06:42:37.808Z,22.07
2019-04-14T06:45:07.015Z,21.48
2019-04-14T06:47:36.133Z,29.12
2019-04-14T06:50:05.623Z,17.00
2019-04-14T06:52:34.533Z,20.60
2019-04-14T06:55:03.551Z,24.43
2019-04-14T06:57:32.814Z,31.62
2019-04-14T07:00:01.758Z,22.15
2019-04-14T07:02:31.020Z,19.52
2019-04-14T07:05:00.028Z,15.55
2019-04-14T07:07:28.988Z,19.80
2019-04-14T07:09:57.980Z,21.77
2019-04-14T07:12:27.131Z,32.33
2019-04-14T07:14:56.285Z,22.07
2019-04-14T07:17:25.175Z,25.10
2019-04-14T07:20:01.923Z,25.80
2019-04-14T07:22:24.787Z,22.35
2019-04-14T07:24:53.591Z,25.82
2019-04-14T07:27:22.930Z,16.67
2019-04-14T07:30:01.151Z,21.40
2019-04-14T07:32:47.453Z,19.07
2019-04-14T07:35:41.816Z,18.85
2019-04-14T07:38:33.429Z,18.10
2019-04-14T07:41:12.615Z,17.42
2019-04-14T07:43:55.785Z,21.05
2019-04-14T07:46:52.941Z,16.67
2019-04-14T07:49:47.625Z,23.85
2019-04-14T07:52:26.537Z,22.35
2019-04-14T07:55:14.620Z,15.45
2019-04-14T07:57:59.558Z,24.43
2019-04-14T08:00:34.743Z,10.80
2019-04-14T08:03:14.358Z,19.23
2019-04-14T08:05:43.313Z,18.42
2019-04-14T08:08:12.637Z,17.73
2019-04-14T08:10:41.619Z,26.07
2019-04-14T08:13:10.445Z,23.15
2019-04-14T08:15:39.614Z,20.95
2019-04-14T08:18:08.616Z,18.80
2019-04-14T08:20:37.942Z,17.77
2019-04-14T08:23:07.220Z,24.23
2019-04-14T08:25:36.520Z,16.90
2019-04-14T08:28:05.706Z,21.68
2019-04-14T08:30:34.938Z,20.50
2019-04-14T08:33:03.786Z,24.92
2019-04-14T08:35:32.683Z,22.67
2019-04-14T08:38:01.601Z,19.75
2019-04-14T08:40:30.472Z,21.10
2019-04-14T08:43:27.929Z,14.07
2019-04-14T08:46:15.851Z,15.85
2019-04-14T08:48:51.842Z,17.02
2019-04-14T08:51:25.714Z,19.65
2019-04-14T08:54:08.656Z,22.05
2019-04-14T08:56:52.598Z,15.08
2019-04-14T08:59:43.109Z,17.50
2019-04-14T09:02:17.435Z,17.57
2019-04-14T09:05:00.684Z,19.48
2019-04-14T09:07:33.035Z,15.13
2019-04-14T09:10:08.482Z,18.40
2019-04-14T09:12:39.755Z,16.85
2019-04-14T09:15:09.052Z,15.45
2019-04-14T09:17:38.327Z,17.80
2019-04-14T09:20:07.955Z,20.02
2019-04-14T09:22:36.880Z,18.20
2019-04-14T09:25:06.260Z,38.27
2019-04-14T09:27:35.284Z,22.40
2019-04-14T09:30:05.232Z,19.10
2019-04-14T09:32:35.042Z,16.90
2019-04-14T09:35:04.031Z,19.62
2019-04-14T09:37:33.342Z,17.00
2019-04-14T09:40:02.582Z,19.43
2019-04-14T09:42:31.740Z,21.30
2019-04-14T09:45:00.978Z,20.85
2019-04-14T09:47:30.515Z,19.87
2019-04-14T09:49:59.579Z,13.53
2019-04-14T09:52:28.466Z,13.50
2019-04-14T09:54:57.535Z,26.90
2019-04-14T09:57:26.677Z,21.60
2019-04-14T09:59:55.951Z,19.50
2019-04-14T10:02:25.627Z,16.53
2019-04-14T10:04:54.542Z,18.80
2019-04-14T10:07:23.864Z,14.73
2019-04-14T10:09:53.505Z,18.40
2019-04-14T10:12:22.364Z,20.47
2019-04-14T10:14:51.839Z,17.60
2019-04-14T10:17:21.356Z,19.00
2019-04-14T10:19:50.651Z,25.33
2019-04-14T10:22:19.442Z,13.90
2019-04-14T10:24:48.535Z,14.77
2019-04-14T10:27:17.519Z,16.47
2019-04-14T10:29:46.604Z,16.70
2019-04-14T10:32:15.717Z,15.03
2019-04-14T10:34:45.006Z,16.07
2019-04-14T10:37:14.415Z,21.17
2019-04-14T10:39:44.023Z,31.63
2019-04-14T10:42:13.292Z,17.70
2019-04-14T10:44:42.622Z,14.87
2019-04-14T10:47:11.819Z,19.07
2019-04-14T10:49:40.649Z,20.97
2019-04-14T10:52:09.486Z,15.17
2019-04-14T10:54:38.486Z,18.87
2019-04-14T10:57:07.683Z,14.07
2019-04-14T10:59:36.586Z,16.27
2019-04-14T11:02:05.577Z,19.07
2019-04-14T11:04:34.459Z,12.10
2019-04-14T11:07:06.678Z,13.47
2019-04-14T11:09:35.714Z,19.07
2019-04-14T11:12:05.678Z,18.43
2019-04-14T11:14:34.712Z,19.23
2019-04-14T11:17:03.698Z,20.20
2019-04-14T11:19:32.718Z,19.53
2019-04-14T11:22:01.539Z,17.03
2019-04-14T11:24:30.760Z,20.40
2019-04-14T11:26:59.642Z,15.17
2019-04-14T11:29:28.645Z,18.83
2019-04-14T11:32:18.752Z,14.63
2019-04-14T11:34:55.036Z,19.07
2019-04-14T11:37:49.080Z,20.80
2019-04-14T11:40:20.897Z,26.13
2019-04-14T11:42:52.407Z,20.27
2019-04-14T11:45:20.878Z,14.90
2019-04-14T11:47:49.898Z,15.10
2019-04-14T11:50:19.964Z,15.90
2019-04-14T11:52:48.850Z,13.47
2019-04-14T11:55:18.335Z,16.40
2019-04-14T11:57:47.428Z,22.87
2019-04-14T12:00:30.682Z,17.60
2019-04-14T12:03:28.327Z,15.60
2019-04-14T12:06:16.082Z,14.77
2019-04-14T12:08:49.379Z,12.53
2019-04-14T12:11:18.343Z,18.63
2019-04-14T12:13:47.326Z,17.00
2019-04-14T12:16:16.710Z,14.67
2019-04-14T12:18:45.663Z,16.97
2019-04-14T12:21:14.807Z,17.10
2019-04-14T12:23:43.773Z,20.03
2019-04-14T12:26:13.043Z,17.63
2019-04-14T12:28:42.699Z,16.03
2019-04-14T12:31:13.134Z,14.93
2019-04-14T12:33:42.895Z,17.80
2019-04-14T12:36:13.138Z,15.07
2019-04-14T12:38:42.308Z,21.97
2019-04-14T12:41:15.753Z,26.73
2019-04-14T12:44:01.194Z,21.03
2019-04-14T12:46:58.246Z,18.73
2019-04-14T12:49:37.443Z,15.67
2019-04-14T12:52:34.301Z,19.77
2019-04-14T12:55:03.434Z,17.80
2019-04-14T12:57:49.280Z,13.20
2019-04-14T13:00:35.495Z,18.87
2019-04-14T13:03:04.455Z,13.77
2019-04-14T13:05:33.737Z,17.13
2019-04-14T13:08:02.855Z,19.87
2019-04-14T13:10:31.675Z,17.60
2019-04-14T13:13:00.878Z,16.13
2019-04-14T13:15:29.774Z,17.40
2019-04-14T13:17:58.815Z,13.67
2019-04-14T13:20:27.711Z,12.10
2019-04-14T13:22:57.074Z,19.17
2019-04-14T13:25:26.020Z,13.63
2019-04-14T13:27:54.972Z,16.43
2019-04-14T13:30:35.823Z,13.87
2019-04-14T13:33:04.395Z,12.80
2019-04-14T13:35:33.685Z,14.23
2019-04-14T13:38:02.341Z,9.70
2019-04-14T13:40:31.530Z,11.50
2019-04-14T13:43:01.483Z,14.97
2019-04-14T13:45:31.015Z,13.00
2019-04-14T13:48:00.159Z,13.10
2019-04-14T13:50:29.416Z,15.63
2019-04-14T13:52:58.524Z,13.60
2019-04-14T13:55:30.984Z,12.40
2019-04-14T13:58:00.082Z,14.00
2019-04-14T14:00:29.294Z,13.37
2019-04-14T14:02:58.697Z,11.47
2019-04-14T14:05:28.023Z,8.40
2019-04-14T14:07:57.209Z,8.80
2019-04-14T14:10:26.448Z,10.57
2019-04-14T14:13:14.419Z,8.87
2019-04-14T14:15:57.279Z,11.30
2019-04-14T14:18:34.115Z,13.70
2019-04-14T14:21:25.698Z,10.63
2019-04-14T14:24:23.361Z,8.60
2019-04-14T14:26:53.335Z,11.60
2019-04-14T14:29:22.978Z,11.53
2019-04-14T14:31:52.573Z,9.50
2019-04-14T14:34:21.738Z,10.30
2019-04-14T14:36:50.990Z,12.57
2019-04-14T14:39:21.706Z,8.20
2019-04-14T14:41:51.389Z,7.57
2019-04-14T14:44:22.304Z,9.63
2019-04-14T14:47:19.453Z,10.87
2019-04-14T14:50:06.379Z,8.90
2019-04-14T14:52:36.615Z,13.20
2019-04-14T14:55:06.066Z,9.13
2019-04-14T14:57:34.911Z,9.63
2019-04-14T15:00:04.281Z,10.90
2019-04-14T15:02:33.303Z,8.47
2019-04-14T15:05:02.295Z,10.77
2019-04-14T15:07:31.095Z,9.50
2019-04-14T15:09:59.934Z,5.80
2019-04-14T15:12:28.873Z,8.13
2019-04-14T15:14:58.172Z,12.23
2019-04-14T15:17:27.588Z,8.40
2019-04-14T15:19:56.659Z,8.30
2019-04-14T15:22:25.756Z,12.07
2019-04-14T15:24:54.719Z,9.10
2019-04-14T15:27:23.607Z,8.33
2019-04-14T15:29:52.431Z,14.83
2019-04-14T15:32:21.799Z,9.20
2019-04-14T15:34:50.770Z,13.60
2019-04-14T15:37:19.659Z,12.90
2019-04-14T15:39:48.626Z,8.77
2019-04-14T15:42:17.795Z,10.87
2019-04-14T15:44:46.809Z,9.40
2019-04-14T15:47:15.724Z,7.83
2019-04-14T15:49:44.543Z,12.10
2019-04-14T15:52:13.779Z,8.73
2019-04-14T15:54:43.205Z,12.67
2019-04-14T15:57:37.066Z,11.10
2019-04-14T16:00:21.554Z,11.37
2019-04-14T16:03:16.206Z,8.13
2019-04-14T16:05:53.085Z,14.00
2019-04-14T16:08:35.389Z,9.67
2019-04-14T16:11:26.124Z,10.83
2019-04-14T16:14:11.967Z,10.47
2019-04-14T16:17:05.347Z,13.23
2019-04-14T16:19:47.371Z,9.17
2019-04-14T16:22:16.253Z,7.13
2019-04-14T16:24:45.221Z,8.40
2019-04-14T16:27:24.219Z,8.97
2019-04-14T16:30:02.962Z,10.05
2019-04-14T16:32:49.712Z,9.00
2019-04-14T16:35:21.930Z,6.80
2019-04-14T16:37:50.889Z,11.08
2019-04-14T16:40:19.898Z,11.78
2019-04-14T16:42:49.068Z,14.35
2019-04-14T16:45:17.514Z,8.27
2019-04-14T16:47:46.691Z,9.93
2019-04-14T16:50:15.940Z,11.07
2019-04-14T16:52:58.556Z,12.23
2019-04-14T16:55:32.855Z,8.20
2019-04-14T16:58:25.845Z,9.10
2019-04-14T17:01:07.683Z,12.30
2019-04-14T17:03:36.636Z,11.20
2019-04-14T17:06:06.310Z,12.70
2019-04-14T17:08:35.328Z,15.73
2019-04-14T17:11:04.527Z,16.50
2019-04-14T17:13:37.051Z,11.23
2019-04-14T17:16:31.301Z,8.78
2019-04-14T17:19:13.952Z,9.25
2019-04-14T17:22:00.203Z,9.35
2019-04-14T17:25:00.435Z,9.63
2019-04-14T17:27:48.500Z,9.90
2019-04-14T17:30:35.393Z,7.60
2019-04-14T17:33:12.023Z,7.73
2019-04-14T17:36:18.835Z,6.12
2019-04-14T17:39:01.942Z,7.20
2019-04-14T17:41:39.692Z,11.10
2019-04-14T17:44:31.210Z,9.80
2019-04-14T17:47:09.253Z,12.33
2019-04-14T17:49:47.614Z,10.30
2019-04-14T17:52:33.752Z,6.03
2019-04-14T17:55:20.395Z,7.60
2019-04-14T17:58:14.631Z,9.53
2019-04-14T18:00:52.751Z,8.40
2019-04-14T18:03:31.660Z,10.00
2019-04-14T18:06:05.635Z,9.33
2019-04-14T18:08:52.807Z,13.30
2019-04-14T18:11:29.034Z,10.40
2019-04-14T18:14:11.358Z,11.38
2019-04-14T18:16:59.311Z,7.67
2019-04-14T18:19:46.870Z,8.73
2019-04-14T18:22:16.220Z,11.40
2019-04-14T18:24:45.184Z,10.68
2019-04-14T18:27:14.082Z,10.38
2019-04-14T18:29:51.068Z,9.93
2019-04-14T18:32:30.888Z,9.00
2019-04-14T18:35:07.971Z,7.65
2019-04-14T18:37:50.995Z,7.35
2019-04-14T18:40:45.363Z,8.05
2019-04-14T18:43:51.627Z,7.25
2019-04-14T18:46:48.831Z,5.12
2019-04-14T18:49:48.660Z,6.05
2019-04-14T18:52:36.691Z,5.78
2019-04-14T18:55:23.415Z,7.45
2019-04-14T18:58:11.531Z,4.85
2019-04-14T19:00:45.170Z,4.50
2019-04-14T19:03:14.067Z,8.00
2019-04-14T19:05:43.199Z,5.25
2019-04-14T19:08:12.424Z,5.22
2019-04-14T19:10:43.298Z,5.45
2019-04-14T19:13:23.936Z,5.57
2019-04-14T19:16:03.520Z,4.58
2019-04-14T19:18:35.538Z,6.45
2019-04-14T19:21:07.283Z,3.58
2019-04-14T19:23:36.392Z,2.90
2019-04-14T19:26:06.451Z,8.68
2019-04-14T19:28:35.741Z,4.92
2019-04-14T19:31:04.783Z,4.40
2019-04-14T19:33:34.206Z,5.80
2019-04-14T19:36:03.114Z,5.15
2019-04-14T19:38:32.417Z,6.22
2019-04-14T19:41:01.252Z,4.20
2019-04-14T19:43:30.276Z,3.37
2019-04-14T19:45:59.240Z,4.50
2019-04-14T19:48:28.368Z,4.78
2019-04-14T19:50:58.015Z,4.05
2019-04-14T19:53:28.968Z,7.08
2019-04-14T19:55:58.217Z,5.35
2019-04-14T19:58:27.659Z,5.62
2019-04-14T20:00:56.661Z,6.58
2019-04-14T20:03:25.534Z,9.35
2019-04-14T20:05:55.290Z,5.15
2019-04-14T20:08:24.250Z,4.30
2019-04-14T20:10:53.335Z,4.65
2019-04-14T20:13:22.301Z,3.95
2019-04-14T20:16:10.160Z,6.08
2019-04-14T20:19:16.327Z,4.70
2019-04-14T20:22:00.485Z,5.90
2019-04-14T20:24:33.997Z,5.83
2019-04-14T20:27:12.640Z,4.97
2019-04-14T20:29:47.201Z,3.95
2019-04-14T20:32:22.372Z,4.80
2019-04-14T20:34:51.776Z,8.60
2019-04-14T20:37:20.667Z,7.47
2019-04-14T20:39:49.147Z,6.78
2019-04-14T20:42:18.223Z,9.28
2019-04-14T20:44:47.207Z,5.20
2019-04-14T20:47:16.278Z,5.65
2019-04-14T20:49:45.826Z,6.08
2019-04-14T20:52:14.756Z,6.20
2019-04-14T20:54:43.677Z,7.33
2019-04-14T20:57:12.656Z,3.55
2019-04-14T20:59:41.858Z,6.08
2019-04-14T21:02:48.261Z,5.20
2019-04-14T21:05:51.739Z,7.05
2019-04-14T21:08:43.091Z,8.75
2019-04-14T21:11:34.187Z,5.58
2019-04-14T21:14:24.655Z,7.72
2019-04-14T21:17:04.944Z,6.53
2019-04-14T21:19:42.016Z,6.80
2019-04-14T21:22:32.915Z,6.58
2019-04-14T21:25:13.987Z,13.15
2019-04-14T21:28:02.643Z,4.80
2019-04-14T21:31:00.748Z,8.10
2019-04-14T21:33:47.391Z,6.50
2019-04-14T21:36:21.074Z,8.08
2019-04-14T21:39:03.133Z,6.92
2019-04-14T21:41:32.131Z,6.53
2019-04-14T21:44:00.977Z,7.17
2019-04-14T21:46:30.035Z,6.65
2019-04-14T21:48:58.929Z,5.25
2019-04-14T21:51:46.910Z,6.83
2019-04-14T21:54:16.339Z,6.20
2019-04-14T21:56:47.022Z,14.90
2019-04-14T21:59:21.960Z,7.65
2019-04-14T22:02:16.040Z,7.22
2019-04-14T22:05:02.862Z,8.25
2019-04-14T22:07:51.363Z,10.90
2019-04-14T22:10:29.574Z,9.73
2019-04-14T22:12:58.458Z,8.50
2019-04-14T22:15:27.432Z,11.63
2019-04-14T22:17:56.431Z,9.10
2019-04-14T22:20:25.373Z,10.78
2019-04-14T22:22:57.895Z,13.13
2019-04-14T22:25:26.745Z,8.30
2019-04-14T22:27:55.919Z,9.08
2019-04-14T22:30:25.226Z,14.65
2019-04-14T22:32:54.159Z,9.48
2019-04-14T22:35:23.397Z,14.33
2019-04-14T22:37:52.603Z,13.30
2019-04-14T22:40:21.948Z,9.33
2019-04-14T22:42:51.206Z,9.93
2019-04-14T22:45:20.281Z,14.35
2019-04-14T22:47:49.570Z,9.45
2019-04-14T22:50:18.917Z,14.45
2019-04-14T22:52:47.726Z,9.03
2019-04-14T22:55:16.685Z,9.58
2019-04-14T22:57:45.560Z,13.13
2019-04-14T23:00:32.887Z,12.07
2019-04-14T23:03:23.599Z,13.58
2019-04-14T23:06:11.180Z,11.50
2019-04-14T23:08:46.892Z,14.65
2019-04-14T23:11:33.751Z,12.45
2019-04-14T23:14:21.527Z,13.15
2019-04-14T23:17:15.461Z,12.28
2019-04-14T23:20:06.706Z,15.98
2019-04-14T23:22:48.291Z,11.15
2019-04-14T23:25:17.511Z,9.88
2019-04-14T23:27:46.427Z,13.83
2019-04-14T23:30:15.472Z,12.75
2019-04-14T23:32:44.430Z,12.43
2019-04-14T23:35:13.543Z,10.60
2019-04-14T23:37:42.615Z,15.20
2019-04-14T23:40:11.663Z,14.40
2019-04-14T23:42:41.287Z,10.25
2019-04-14T23:45:10.309Z,8.30
2019-04-14T23:47:39.590Z,14.78
2019-04-14T23:50:08.729Z,10.40
2019-04-14T23:52:37.733Z,14.50
2019-04-14T23:55:07.175Z,11.85
2019-04-14T23:57:36.476Z,18.35
